Time,TemperatureF,DewpointF,PressureIn,WindDirection,WindDirectionDegrees,WindSpeedMPH,WindSpeedGustMPH,Humidity,HourlyPrecipIn,Conditions,Clouds,dailyrainin,SoftwareType,DateUTC
2013-01-21 00:07:00,30.7,30.2,29.92,ESE,112,0.0,-999.0,98,-99.99,,,0.00,Acu-Link.com,2013-01-21 05:07:00,
2013-01-21 00:23:00,30.0,29.5,29.93,ESE,112,0.0,-999.0,98,-99.99,,,0.00,Acu-Link.com,2013-01-21 05:23:00,
2013-01-21 00:38:00,29.5,29.0,29.93,ESE,112,0.0,-999.0,98,-99.99,,,0.00,Acu-Link.com,2013-01-21 05:38:00,
2013-01-21 00:53:00,29.1,28.6,29.91,North,0,1.7,-999.0,98,-99.99,,,0.00,Acu-Link.com,2013-01-21 05:53:00,
2013-01-21 01:08:00,29.1,28.6,29.92,NW,315,1.1,-999.0,98,-99.99,,,0.00,Acu-Link.com,2013-01-21 06:08:00,
2013-01-21 01:24:00,28.9,28.4,29.92,NW,315,0.0,-999.0,98,-99.99,,,0.00,Acu-Link.com,2013-01-21 06:24:00,
2013-01-21 01:39:00,28.4,27.9,29.93,SE,135,0.0,-999.0,98,-99.99,,,0.00,Acu-Link.com,2013-01-21 06:39:00,
2013-01-21 01:54:00,28.0,27.5,29.92,SE,135,0.0,-999.0,98,-99.99,,,0.00,Acu-Link.com,2013-01-21 06:54:00,
2013-01-21 02:10:00,27.5,27.0,29.92,SE,135,0.0,-999.0,98,-99.99,,,0.00,Acu-Link.com,2013-01-21 07:10:00,
2013-01-21 02:25:00,27.5,27.0,29.92,SE,135,0.0,-999.0,98,-99.99,,,0.00,Acu-Link.com,2013-01-21 07:25:00,
2013-01-21 02:40:00,27.1,26.6,29.91,SE,135,0.0,-999.0,98,-99.99,,,0.00,Acu-Link.com,2013-01-21 07:40:00,
2013-01-21 02:56:00,27.0,26.5,29.91,SE,135,0.0,-999.0,98,-99.99,,,0.00,Acu-Link.com,2013-01-21 07:56:00,
2013-01-21 03:11:00,26.8,26.3,29.91,SE,135,0.0,-999.0,98,-99.99,,,0.00,Acu-Link.com,2013-01-21 08:11:00,
2013-01-21 03:41:00,27.0,26.5,29.90,SSE,157,2.2,-999.0,98,-99.99,,,0.00,Acu-Link.com,2013-01-21 08:41:00,
2013-01-21 04:32:00,26.1,25.6,29.91,NNW,337,1.1,-999.0,98,-99.99,,,0.00,Acu-Link.com,2013-01-21 09:32:00,
2013-01-21 04:47:00,25.3,24.8,29.90,SE,135,0.0,-999.0,98,-99.99,,,0.00,Acu-Link.com,2013-01-21 09:47:00,
2013-01-21 05:02:00,25.3,24.8,29.90,SE,135,0.0,-999.0,98,-99.99,,,0.00,Acu-Link.com,2013-01-21 10:02:00,
2013-01-21 05:17:00,25.0,24.5,29.90,SE,135,1.7,-999.0,98,-99.99,,,0.00,Acu-Link.com,2013-01-21 10:17:00,
2013-01-21 05:32:00,25.5,25.0,29.89,SE,135,0.0,-999.0,98,-99.99,,,0.00,Acu-Link.com,2013-01-21 10:32:00,
2013-01-21 05:47:00,25.2,24.7,29.89,SE,135,0.0,-999.0,98,-99.99,,,0.00,Acu-Link.com,2013-01-21 10:47:00,
2013-01-21 06:03:00,24.8,24.3,29.88,NNW,337,1.7,-999.0,98,-99.99,,,0.00,Acu-Link.com,2013-01-21 11:03:00,
2013-01-21 06:18:00,24.8,24.3,29.89,WNW,292,1.1,-999.0,98,-99.99,,,0.00,Acu-Link.com,2013-01-21 11:18:00,
2013-01-21 06:33:00,26.1,25.6,29.89,WNW,292,1.7,-999.0,98,-99.99,,,0.00,Acu-Link.com,2013-01-21 11:33:00,
2013-01-21 06:48:00,25.3,24.8,29.90,South,180,0.0,-999.0,98,-99.99,,,0.00,Acu-Link.com,2013-01-21 11:48:00,
2013-01-21 07:04:00,25.9,25.4,29.90,NNW,337,1.1,-999.0,98,-99.99,,,0.00,Acu-Link.com,2013-01-21 12:04:00,
2013-01-21 07:19:00,25.7,25.2,29.90,NNW,337,0.0,-999.0,98,-99.99,,,0.00,Acu-Link.com,2013-01-21 12:19:00,
2013-01-21 07:34:00,25.2,24.7,29.91,East,90,0.0,-999.0,98,-99.99,,,0.00,Acu-Link.com,2013-01-21 12:34:00,
2013-01-21 07:50:00,25.2,24.7,29.91,South,180,0.0,-999.0,98,-99.99,,,0.00,Acu-Link.com,2013-01-21 12:50:00,
2013-01-21 08:05:00,25.5,25.0,29.92,SSE,157,0.0,-999.0,98,-99.99,,,0.00,Acu-Link.com,2013-01-21 13:05:00,
2013-01-21 08:20:00,26.8,26.3,29.91,NNE,22,0.0,-999.0,98,-99.99,,,0.00,Acu-Link.com,2013-01-21 13:20:00,
2013-01-21 08:35:00,27.5,27.0,29.92,ENE,67,0.0,-999.0,98,-99.99,,,0.00,Acu-Link.com,2013-01-21 13:35:00,
2013-01-21 08:51:00,28.2,27.7,29.93,NW,315,2.2,-999.0,98,-99.99,,,0.00,Acu-Link.com,2013-01-21 13:51:00,
2013-01-21 09:06:00,30.4,29.9,29.94,SSE,157,1.7,-999.0,98,-99.99,,,0.00,Acu-Link.com,2013-01-21 14:06:00,
2013-01-21 09:21:00,31.8,31.3,29.95,West,270,1.7,-999.0,98,-99.99,,,0.00,Acu-Link.com,2013-01-21 14:21:00,
2013-01-21 09:37:00,34.3,30.3,29.95,SSW,202,2.7,-999.0,85,-99.99,,,0.00,Acu-Link.com,2013-01-21 14:37:00,
2013-01-21 09:52:00,36.1,30.8,29.95,WSW,247,0.0,-999.0,81,-99.99,,,0.00,Acu-Link.com,2013-01-21 14:52:00,
2013-01-21 10:07:00,38.8,29.2,29.95,WSW,247,2.7,-999.0,68,-99.99,,,0.00,Acu-Link.com,2013-01-21 15:07:00,
2013-01-21 10:23:00,40.3,28.7,29.97,SW,225,3.2,-999.0,63,-99.99,,,0.00,Acu-Link.com,2013-01-21 15:23:00,
2013-01-21 10:38:00,41.0,27.8,29.96,West,270,5.3,-999.0,59,-99.99,,,0.00,Acu-Link.com,2013-01-21 15:38:00,
2013-01-21 10:53:00,42.6,27.1,29.96,WSW,247,5.3,-999.0,54,-99.99,,,0.00,Acu-Link.com,2013-01-21 15:53:00,
2013-01-21 11:08:00,43.2,27.2,29.96,South,180,4.2,-999.0,53,-99.99,,,0.00,Acu-Link.com,2013-01-21 16:08:00,
2013-01-21 11:24:00,44.2,26.3,29.95,SW,225,2.2,-999.0,49,-99.99,,,0.00,Acu-Link.com,2013-01-21 16:24:00,
2013-01-21 11:39:00,45.3,25.2,29.95,SSE,157,1.7,-999.0,45,-99.99,,,0.00,Acu-Link.com,2013-01-21 16:39:00,
2013-01-21 11:54:00,45.9,25.8,29.94,WSW,247,3.2,-999.0,45,-99.99,,,0.00,Acu-Link.com,2013-01-21 16:54:00,
2013-01-21 12:10:00,46.6,24.2,29.93,SSW,202,2.2,-999.0,41,-99.99,,,0.00,Acu-Link.com,2013-01-21 17:10:00,
2013-01-21 12:25:00,46.4,22.2,29.92,SW,225,2.2,-999.0,38,-99.99,,,0.00,Acu-Link.com,2013-01-21 17:25:00,
2013-01-21 12:40:00,49.6,18.7,29.90,SSE,157,4.7,-999.0,29,-99.99,,,0.00,Acu-Link.com,2013-01-21 17:40:00,
2013-01-21 12:56:00,52.7,20.5,29.92,SSW,202,7.3,-999.0,28,-99.99,,,0.00,Acu-Link.com,2013-01-21 17:56:00,
2013-01-21 13:11:00,52.7,16.0,29.91,North,0,3.7,-999.0,23,-99.99,,,0.00,Acu-Link.com,2013-01-21 18:11:00,
2013-01-21 13:26:00,51.4,14.9,29.90,West,270,4.2,-999.0,23,-99.99,,,0.00,Acu-Link.com,2013-01-21 18:26:00,
2013-01-21 13:42:00,50.4,16.8,29.89,SSE,157,5.8,-999.0,26,-99.99,,,0.00,Acu-Link.com,2013-01-21 18:42:00,
2013-01-21 13:57:00,50.0,17.4,29.89,SSW,202,6.3,-999.0,27,-99.99,,,0.00,Acu-Link.com,2013-01-21 18:57:00,
2013-01-21 14:12:00,49.1,14.8,29.90,WSW,247,6.3,-999.0,25,-99.99,,,0.00,Acu-Link.com,2013-01-21 19:12:00,
2013-01-21 14:27:00,48.7,13.5,29.90,SSW,202,3.7,-999.0,24,-99.99,,,0.00,Acu-Link.com,2013-01-21 19:27:00,
2013-01-21 14:43:00,48.9,14.6,29.90,WSW,247,6.3,-999.0,25,-99.99,,,0.00,Acu-Link.com,2013-01-21 19:43:00,
2013-01-21 14:58:00,50.5,9.8,29.89,SSE,157,6.8,-999.0,19,-99.99,,,0.00,Acu-Link.com,2013-01-21 19:58:00,
2013-01-21 15:13:00,49.8,10.4,29.89,SW,225,4.7,-999.0,20,-99.99,,,0.00,Acu-Link.com,2013-01-21 20:13:00,
2013-01-21 15:29:00,50.2,9.6,29.89,West,270,8.3,-999.0,19,-99.99,,,0.00,Acu-Link.com,2013-01-21 20:29:00,
2013-01-21 15:44:00,46.6,10.8,29.89,SW,225,2.2,-999.0,23,-99.99,,,0.00,Acu-Link.com,2013-01-21 20:44:00,
2013-01-21 15:59:00,46.9,12.9,29.88,WNW,292,6.3,-999.0,25,-99.99,,,0.00,Acu-Link.com,2013-01-21 20:59:00,
2013-01-21 16:15:00,46.9,13.8,29.89,West,270,5.8,-999.0,26,-99.99,,,0.00,Acu-Link.com,2013-01-21 21:15:00,
2013-01-21 16:30:00,45.5,11.7,29.90,SSW,202,4.2,-999.0,25,-99.99,,,0.00,Acu-Link.com,2013-01-21 21:30:00,
2013-01-21 16:45:00,45.3,13.3,29.90,SSW,202,7.3,-999.0,27,-99.99,,,0.00,Acu-Link.com,2013-01-21 21:45:00,
2013-01-21 17:00:00,44.6,14.3,29.90,West,270,2.7,-999.0,29,-99.99,,,0.00,Acu-Link.com,2013-01-21 22:00:00,
2013-01-21 17:16:00,43.0,15.2,29.90,SSW,202,6.3,-999.0,32,-99.99,,,0.00,Acu-Link.com,2013-01-21 22:16:00,
2013-01-21 17:31:00,41.7,14.7,29.90,West,270,1.1,-999.0,33,-99.99,,,0.00,Acu-Link.com,2013-01-21 22:31:00,
2013-01-21 17:46:00,40.5,15.0,29.90,SSW,202,3.2,-999.0,35,-99.99,,,0.00,Acu-Link.com,2013-01-21 22:46:00,
2013-01-21 18:02:00,39.6,15.5,29.90,WSW,247,4.2,-999.0,37,-99.99,,,0.00,Acu-Link.com,2013-01-21 23:02:00,
2013-01-21 18:17:00,39.0,16.2,29.92,SSW,202,2.7,-999.0,39,-99.99,,,0.00,Acu-Link.com,2013-01-21 23:17:00,
2013-01-21 18:32:00,37.6,16.6,29.91,SSW,202,0.0,-999.0,42,-99.99,,,0.00,Acu-Link.com,2013-01-21 23:32:00,
2013-01-21 18:48:00,36.9,16.5,29.92,North,0,2.2,-999.0,43,-99.99,,,0.00,Acu-Link.com,2013-01-21 23:48:00,
2013-01-21 19:03:00,36.3,16.5,29.92,SSW,202,1.1,-999.0,44,-99.99,,,0.00,Acu-Link.com,2013-01-22 00:03:00,
2013-01-21 19:18:00,35.4,16.7,29.93,WSW,247,2.7,-999.0,46,-99.99,,,0.00,Acu-Link.com,2013-01-22 00:18:00,
2013-01-21 19:33:00,34.5,16.9,29.94,West,270,2.2,-999.0,48,-99.99,,,0.00,Acu-Link.com,2013-01-22 00:33:00,
2013-01-21 19:48:00,35.4,12.9,29.95,WNW,292,4.7,-999.0,39,-99.99,,,0.00,Acu-Link.com,2013-01-22 00:48:00,
2013-01-21 20:04:00,35.1,13.2,29.94,West,270,4.2,-999.0,40,-99.99,,,0.00,Acu-Link.com,2013-01-22 01:04:00,
2013-01-21 20:19:00,34.7,12.9,29.94,NNE,22,3.7,-999.0,40,-99.99,,,0.00,Acu-Link.com,2013-01-22 01:19:00,
2013-01-21 20:34:00,34.2,12.4,29.95,SSW,202,3.7,-999.0,40,-99.99,,,0.00,Acu-Link.com,2013-01-22 01:34:00,
2013-01-21 20:50:00,33.6,10.7,29.95,NNW,337,4.2,-999.0,38,-99.99,,,0.00,Acu-Link.com,2013-01-22 01:50:00,
2013-01-21 21:05:00,33.1,10.9,29.96,WNW,292,1.1,-999.0,39,-99.99,,,0.00,Acu-Link.com,2013-01-22 02:05:00,
2013-01-21 21:20:00,32.5,10.9,29.96,SSW,202,3.7,-999.0,40,-99.99,,,0.00,Acu-Link.com,2013-01-22 02:20:00,
2013-01-21 21:36:00,32.0,12.1,29.97,West,270,3.2,-999.0,43,-99.99,,,0.00,Acu-Link.com,2013-01-22 02:36:00,
2013-01-21 21:51:00,31.3,11.9,29.97,NNW,337,2.7,-999.0,44,-99.99,,,0.00,Acu-Link.com,2013-01-22 02:51:00,
2013-01-21 22:06:00,31.1,11.8,29.98,SSW,202,3.2,-999.0,44,-99.99,,,0.00,Acu-Link.com,2013-01-22 03:06:00,
2013-01-21 22:21:00,30.6,10.8,29.99,SSW,202,3.2,-999.0,43,-99.99,,,0.00,Acu-Link.com,2013-01-22 03:21:00,
2013-01-21 22:37:00,30.4,10.1,29.99,West,270,3.7,-999.0,42,-99.99,,,0.00,Acu-Link.com,2013-01-22 03:37:00,
2013-01-21 22:52:00,29.5,10.8,29.99,WSW,247,2.7,-999.0,45,-99.99,,,0.00,Acu-Link.com,2013-01-22 03:52:00,
2013-01-21 23:07:00,29.5,11.3,29.99,WSW,247,2.7,-999.0,46,-99.99,,,0.00,Acu-Link.com,2013-01-22 04:07:00,
2013-01-21 23:23:00,29.3,11.6,30.00,SW,225,2.2,-999.0,47,-99.99,,,0.00,Acu-Link.com,2013-01-22 04:23:00,
2013-01-21 23:38:00,28.9,10.8,30.00,West,270,2.2,-999.0,46,-99.99,,,0.00,Acu-Link.com,2013-01-22 04:38:00,
2013-01-21 23:53:00,28.4,11.2,30.00,SSW,202,2.2,-999.0,48,-99.99,,,0.00,Acu-Link.com,2013-01-22 04:53:00,